Terminal Aerodrome Forecast
Issued by NWS

Home | Current Version | Previous Version | Text Only | Print | Product List | Glossary On
Versions: 1 2 3 4 5 6 7 8 9 10 11 12 13 14
000
FTUS42 TJSJ 142300 RRA
TAFNCM
TAF
TNCM 142339Z 1500/1524 07010KT P6SM VCSH FEW020 SCT030
     FM150500 07008KT P6SM VCSH SCT020
      TEMPO 1505/1509 -SHRA BKN019
     FM151430 09012KT P6SM SCT022=

USA.gov is the U.S. government's official web portal to all federal, state and local government web resources and services.